Time;durP1;ratioP1;P1;durP2;ratioP2;P2;SDS_P1;SDS_P2;PMS_P1;PMS_P2;Temp;Humidity;BMP_temperature;BMP_pressure;BME280_temperature;BME280_humidity;BME280_pressure;Samples;Min_cycle;Max_cycle;Signal;HPM_P1;HPM_P2
2022/12/16 00:01:31;;;;;;;96.57;46.00;;;;;;;-1.37;63.62;99717.91;4958359;28;97301;-84
2022/12/16 00:03:57;;;;;;;88.83;47.30;;;;;;;-1.27;63.27;99723.09;4932137;28;101011;-84
2022/12/16 00:06:25;;;;;;;93.83;48.13;;;;;;;-1.32;63.27;99724.78;4965224;28;97940;-85
2022/12/16 00:08:51;;;;;;;91.47;48.63;;;;;;;-1.45;64.23;99709.28;4929632;28;97410;-84
2022/12/16 00:11:16;;;;;;;92.43;46.73;;;;;;;-1.34;63.47;99719.63;4950358;28;97052;-85
2022/12/16 00:13:42;;;;;;;91.70;45.87;;;;;;;-1.31;63.78;99722.22;4950722;28;99014;-85
2022/12/16 00:16:10;;;;;;;101.87;50.13;;;;;;;-1.33;63.29;99711.06;4940017;28;97923;-85
2022/12/16 00:18:35;;;;;;;97.30;49.47;;;;;;;-1.30;63.22;99718.78;4934191;28;96761;-85
2022/12/16 00:21:02;;;;;;;94.97;48.23;;;;;;;-1.22;63.28;99729.09;4938458;28;96858;-86
2022/12/16 00:26:12;;;;;;;99.33;49.73;;;;;;;-1.53;63.04;99663.75;4942862;28;100032;-85
2022/12/16 00:28:39;;;;;;;93.60;49.33;;;;;;;-1.27;63.82;99705.94;4937490;28;97275;-85
2022/12/16 00:31:05;;;;;;;91.80;48.47;;;;;;;-1.17;63.36;99717.13;4938386;28;96958;-83
2022/12/16 00:33:31;;;;;;;95.67;48.77;;;;;;;-1.21;63.17;99713.69;4928499;28;101232;-86
2022/12/16 00:35:57;;;;;;;99.07;48.33;;;;;;;-1.22;63.37;99711.97;4957071;28;98447;-84
2022/12/16 00:38:24;;;;;;;101.03;49.77;;;;;;;-1.21;63.67;99712.81;4920204;28;97287;-85
2022/12/16 00:40:50;;;;;;;103.03;51.07;;;;;;;-1.26;63.23;99699.06;4942348;28;96974;-84
2022/12/16 00:43:15;;;;;;;107.70;51.57;;;;;;;-1.20;63.43;99701.66;4955630;28;99418;-85
2022/12/16 00:45:41;;;;;;;95.83;49.43;;;;;;;-1.18;63.25;99702.53;4947587;28;98259;-85
2022/12/16 00:48:07;;;;;;;99.00;50.07;;;;;;;-1.24;62.78;99682.75;4939057;28;96865;-85
2022/12/16 00:50:33;;;;;;;99.47;49.20;;;;;;;-1.39;63.22;99662.97;4932730;28;97284;-85
2022/12/16 00:52:59;;;;;;;101.80;50.60;;;;;;;-1.29;63.35;99684.44;4934846;28;100866;-84
2022/12/16 00:55:24;;;;;;;101.77;51.30;;;;;;;-1.31;62.91;99683.59;4945624;28;98414;-85
2022/12/16 00:57:50;;;;;;;102.77;52.37;;;;;;;-1.30;63.23;99679.31;4941653;28;96825;-86
2022/12/16 01:00:17;;;;;;;100.83;49.17;;;;;;;-1.30;63.41;99682.75;4947867;28;97315;-85
2022/12/16 01:02:44;;;;;;;91.43;47.70;;;;;;;-1.42;63.30;99662.09;4938042;28;101875;-86
2022/12/16 01:05:11;;;;;;;97.33;49.93;;;;;;;-1.31;63.71;99680.16;4939732;28;101171;-85
2022/12/16 01:07:37;;;;;;;97.07;48.70;;;;;;;-1.48;63.42;99644.06;4928593;28;97016;-85
2022/12/16 01:10:04;;;;;;;90.93;47.57;;;;;;;-1.39;63.53;99659.53;4937598;28;97176;-86
2022/12/16 01:12:29;;;;;;;88.50;46.50;;;;;;;-1.29;63.27;99663.00;4924228;28;101567;-82
2022/12/16 01:14:55;;;;;;;90.80;46.70;;;;;;;-1.27;63.17;99654.41;4923348;28;100571;-82
2022/12/16 01:17:20;;;;;;;94.93;48.23;;;;;;;-1.52;63.41;99617.41;4940526;28;97080;-86
2022/12/16 01:19:46;;;;;;;95.23;47.30;;;;;;;-1.33;63.59;99656.97;4949793;28;96921;-86
2022/12/16 01:22:12;;;;;;;97.67;45.40;;;;;;;-1.25;63.85;99656.97;4930442;28;101463;-86
2022/12/16 01:24:38;;;;;;;89.70;44.57;;;;;;;-1.22;63.13;99664.72;4926347;28;101193;-83
2022/12/16 01:27:04;;;;;;;92.67;45.73;;;;;;;-1.27;63.29;99657.00;4942646;28;96702;-83
2022/12/16 01:29:29;;;;;;;83.93;43.03;;;;;;;-1.29;62.92;99657.84;4935034;28;97163;-83
2022/12/16 01:31:55;;;;;;;83.70;43.40;;;;;;;-1.19;63.00;99672.50;4923921;28;100019;-84
2022/12/16 01:34:20;;;;;;;82.67;42.87;;;;;;;-1.14;63.25;99673.34;4936117;28;99634;-82
2022/12/16 01:36:46;;;;;;;86.27;41.37;;;;;;;-1.18;62.61;99666.47;4919715;28;97215;-85
2022/12/16 01:39:11;;;;;;;88.67;43.97;;;;;;;-1.22;63.25;99652.72;4951278;28;96903;-85
2022/12/16 01:41:37;;;;;;;80.23;40.83;;;;;;;-1.14;62.82;99647.56;4955521;28;98521;-82
2022/12/16 01:44:18;;;;;;;83.73;41.43;;;;;;;-1.24;62.54;99644.13;4951706;28;100744;-83
2022/12/16 01:46:49;;;;;;;80.90;40.87;;;;;;;-1.13;62.82;99662.19;4929951;28;96681;-83
2022/12/16 01:49:53;;;;;;;77.90;40.90;;;;;;;-1.12;62.82;99665.63;4955589;28;96768;-83
2022/12/16 01:52:26;;;;;;;79.70;38.87;;;;;;;-1.17;62.68;99660.44;4939495;28;98560;-83
2022/12/16 01:55:08;;;;;;;85.37;41.90;;;;;;;-1.20;63.12;99661.28;4946716;28;101664;-83
2022/12/16 01:57:42;;;;;;;78.72;38.85;;;;;;;-1.14;62.65;99655.31;4920524;28;96683;-85
2022/12/16 02:00:09;;;;;;;76.27;38.70;;;;;;;-1.15;62.85;99651.03;4926522;28;97257;-83
2022/12/16 02:02:43;;;;;;;75.27;38.37;;;;;;;-1.13;62.72;99646.75;4930322;28;101344;-83
2022/12/16 02:05:21;;;;;;;78.87;40.70;;;;;;;-1.19;63.04;99639.84;4925295;28;101626;-83
2022/12/16 02:08:01;;;;;;;74.67;37.90;;;;;;;-1.17;62.96;99642.41;4967636;28;97133;-83
2022/12/16 02:10:38;;;;;;;75.87;40.37;;;;;;;-1.27;62.64;99625.25;4958166;28;97095;-83
2022/12/16 02:13:14;;;;;;;77.43;39.33;;;;;;;-1.17;62.75;99626.97;4953468;28;101219;-84
2022/12/16 02:16:02;;;;;;;75.23;38.03;;;;;;;-1.12;62.96;99635.56;4962390;28;101415;-83
2022/12/16 02:18:53;;;;;;;73.57;38.03;;;;;;;-1.09;62.97;99624.41;4936391;28;97380;-83
2022/12/16 02:21:40;;;;;;;77.50;38.33;;;;;;;-1.18;63.17;99626.13;4940758;28;98076;-81
2022/12/16 02:24:45;;;;;;;75.20;37.63;;;;;;;-1.17;63.47;99626.97;4944113;28;101592;-84
2022/12/16 02:27:23;;;;;;;71.27;37.37;;;;;;;-1.15;63.51;99618.38;4945784;28;97342;-85
2022/12/16 02:30:03;;;;;;;75.40;38.60;;;;;;;-1.12;63.08;99608.97;4950433;28;97038;-85
2022/12/16 02:32:51;;;;;;;76.67;37.93;;;;;;;-1.12;63.35;99602.09;4926447;28;96705;-85
2022/12/16 02:35:27;;;;;;;76.50;38.47;;;;;;;-1.20;63.41;99596.06;4925412;28;101483;-85
2022/12/16 02:37:59;;;;;;;78.97;39.90;;;;;;;-1.13;63.18;99600.38;4945039;28;97040;-84
2022/12/16 02:40:44;;;;;;;75.83;38.67;;;;;;;-1.12;63.16;99604.66;4926274;28;96674;-85
2022/12/16 02:43:16;;;;;;;80.47;39.27;;;;;;;-1.06;63.50;99607.25;4924602;28;97603;-84
2022/12/16 02:45:42;;;;;;;78.38;39.45;;;;;;;-1.18;63.63;99592.63;4923039;28;101308;-85
2022/12/16 02:48:07;;;;;;;75.07;38.00;;;;;;;-1.33;63.44;99569.44;4941093;28;100412;-85
2022/12/16 02:50:48;;;;;;;76.43;38.30;;;;;;;-1.17;63.26;99603.78;4916150;28;97943;-85
2022/12/16 02:53:14;;;;;;;76.63;38.70;;;;;;;-1.14;63.80;99608.94;4928568;28;97258;-84
2022/12/16 02:56:27;;;;;;;75.73;38.30;;;;;;;-1.07;63.88;99614.97;4924855;28;100359;-84
2022/12/16 02:59:05;;;;;;;;;;;;;;;-1.00;63.21;99614.13;4888384;28;101028;-85
2022/12/16 03:01:50;;;;;;;67.70;35.13;;;;;;;-1.03;63.50;99614.97;4885375;28;97148;-83
2022/12/16 03:04:22;;;;;;;70.50;36.17;;;;;;;-1.05;63.39;99611.53;4949948;28;97146;-85
2022/12/16 03:06:48;;;;;;;;;;;;;;;-1.06;63.78;99611.53;4923689;28;99576;-84
2022/12/16 03:09:18;;;;;;;72.33;36.20;;;;;;;-1.04;63.24;99608.13;4920787;28;101531;-85
2022/12/16 03:11:44;;;;;;;69.90;35.17;;;;;;;-1.12;63.38;99596.94;4938318;28;96805;-85
2022/12/16 03:14:13;;;;;;;70.27;36.10;;;;;;;-1.04;63.50;99602.97;4933436;28;96896;-85
2022/12/16 03:16:39;;;;;;;72.23;35.47;;;;;;;-1.27;63.87;99547.97;4926553;28;101514;-85
2022/12/16 03:19:07;;;;;;;73.80;36.80;;;;;;;-1.01;63.65;99582.34;4958663;28;97863;-84
2022/12/16 03:21:41;;;;;;;72.40;37.57;;;;;;;-1.04;63.54;99571.19;4958820;28;96734;-85
2022/12/16 03:24:09;;;;;;;68.93;35.63;;;;;;;-1.00;63.36;99568.59;4918837;28;96850;-85
2022/12/16 03:26:40;;;;;;;72.10;36.43;;;;;;;-1.04;63.41;99558.31;4931443;28;101123;-85
2022/12/16 03:29:32;;;;;;;74.45;34.55;;;;;;;-1.02;63.79;99557.47;4933941;28;100327;-85
2022/12/16 03:32:04;;;;;;;71.57;36.17;;;;;;;-0.99;63.60;99559.16;4936372;28;97123;-86
2022/12/16 03:34:36;;;;;;;69.43;36.35;;;;;;;-0.95;63.20;99564.31;4949254;28;96762;-85
2022/12/16 03:37:04;;;;;;;67.67;35.90;;;;;;;-0.97;63.16;99565.16;4914344;28;101586;-83
2022/12/16 03:39:35;;;;;;;70.70;34.63;;;;;;;-0.98;63.27;99559.16;4917990;28;101545;-85
2022/12/16 03:42:01;;;;;;;72.07;36.63;;;;;;;-1.00;63.19;99550.56;4951002;28;96795;-84
2022/12/16 03:44:27;;;;;;;72.93;35.27;;;;;;;-1.01;63.52;99561.75;4955378;28;97475;-85
2022/12/16 03:46:53;;;;;;;69.90;35.97;;;;;;;-1.01;63.12;99558.31;4923192;28;101449;-85
2022/12/16 03:49:18;;;;;;;69.00;34.63;;;;;;;-0.98;63.32;99558.31;4937849;28;101370;-84
2022/12/16 03:51:44;;;;;;;68.70;33.53;;;;;;;-1.00;63.42;99560.88;4924085;28;96745;-85
2022/12/16 03:54:09;;;;;;;72.07;35.80;;;;;;;-1.04;63.33;99548.00;4918011;28;96917;-85
2022/12/16 03:56:35;;;;;;;67.17;35.43;;;;;;;-1.05;63.69;99538.53;4935488;28;100518;-85
2022/12/16 03:59:01;;;;;;;65.73;34.63;;;;;;;-0.89;63.47;99565.19;4945585;28;101481;-84
2022/12/16 04:01:27;;;;;;;63.43;32.43;;;;;;;-1.05;63.08;99543.69;4938024;28;97902;-84
2022/12/16 04:03:52;;;;;;;61.03;32.17;;;;;;;-0.92;63.42;99560.88;4921901;28;97010;-84
2022/12/16 04:06:18;;;;;;;67.80;34.00;;;;;;;-0.86;63.22;99567.75;4934494;28;97776;-84
2022/12/16 04:08:46;;;;;;;66.47;33.53;;;;;;;-0.97;63.33;99558.28;4958808;28;98415;-84
2022/12/16 04:25:05;;;;;;;66.47;34.47;;;;;;;-0.87;63.36;99594.38;4944093;28;96872;-83
2022/12/16 04:27:30;;;;;;;71.63;34.92;;;;;;;-0.88;63.24;99597.81;4951988;28;99680;-85
